Time;durP1;ratioP1;P1;durP2;ratioP2;P2;SDS_P1;SDS_P2;PMS_P1;PMS_P2;Temp;Humidity;BMP_temperature;BMP_pressure;BME280_temperature;BME280_humidity;BME280_pressure;Samples;Min_cycle;Max_cycle;Signal;HPM_P1;HPM_P2
2022/08/02 00:00:34;;;;;;;3.08;2.35;;;;;;;23.33;52.56;99672.41;4391938;32;34246;-71
2022/08/02 00:03:01;;;;;;;2.72;2.03;;;;;;;23.37;52.27;99662.28;4389037;32;33966;-75
2022/08/02 00:05:29;;;;;;;2.55;2.17;;;;;;;22.97;53.45;99675.69;4391930;32;33504;-72
2022/08/02 00:07:56;;;;;;;2.85;2.20;;;;;;;22.84;53.91;99667.28;4389456;32;33138;-73
2022/08/02 00:10:24;;;;;;;2.62;2.00;;;;;;;23.14;53.24;99670.88;4391305;32;33861;-71
2022/08/02 00:12:52;;;;;;;3.10;2.25;;;;;;;22.98;53.56;99669.00;4377605;32;34090;-75
2022/08/02 00:15:21;;;;;;;2.50;2.03;;;;;;;22.85;54.00;99668.06;4391423;32;33698;-74
2022/08/02 00:17:49;;;;;;;3.22;2.10;;;;;;;23.03;53.29;99669.66;4391183;32;34074;-74
2022/08/02 00:20:16;;;;;;;2.60;2.05;;;;;;;23.19;52.97;99672.63;4390431;32;34496;-72
2022/08/02 00:22:44;;;;;;;2.83;2.15;;;;;;;23.20;52.85;99662.41;4392736;32;34143;-74
2022/08/02 00:25:13;;;;;;;2.87;2.20;;;;;;;23.12;53.07;99670.41;4393067;32;33892;-73
2022/08/02 00:27:40;;;;;;;3.12;2.20;;;;;;;22.93;53.57;99668.03;4392701;32;34419;-75
2022/08/02 00:30:08;;;;;;;2.62;2.12;;;;;;;22.92;53.54;99674.72;4392592;32;35123;-74
2022/08/02 00:32:36;;;;;;;3.53;2.42;;;;;;;23.02;53.29;99670.78;4392464;32;34249;-73
2022/08/02 00:35:03;;;;;;;2.22;2.00;;;;;;;22.72;54.18;99669.94;4392676;32;33451;-71
2022/08/02 00:37:31;;;;;;;3.05;2.30;;;;;;;22.90;53.79;99662.38;4392461;32;34542;-74
2022/08/02 00:40:00;;;;;;;2.65;2.10;;;;;;;22.77;53.92;99667.00;4392774;32;33992;-74
2022/08/02 00:42:28;;;;;;;2.83;2.22;;;;;;;22.82;53.82;99672.31;4392461;32;34220;-73
2022/08/02 00:44:57;;;;;;;2.50;2.10;;;;;;;22.93;53.40;99675.53;4392182;32;33878;-73
2022/08/02 00:47:25;;;;;;;3.00;2.40;;;;;;;22.76;54.08;99675.63;4392453;32;34820;-71
2022/08/02 00:49:52;;;;;;;3.67;2.72;;;;;;;22.46;54.92;99675.56;4392535;32;35229;-73
2022/08/02 00:52:21;;;;;;;3.45;2.28;;;;;;;22.41;55.20;99684.84;4392419;32;34293;-76
2022/08/02 00:54:49;;;;;;;2.97;2.37;;;;;;;22.47;55.04;99693.78;4392518;32;33438;-73
2022/08/02 00:57:17;;;;;;;3.37;2.45;;;;;;;22.28;55.61;99683.91;4392502;32;33902;-72
2022/08/02 00:59:44;;;;;;;3.17;2.40;;;;;;;22.61;54.64;99680.53;4394589;32;34167;-74
2022/08/02 01:02:12;;;;;;;3.80;2.20;;;;;;;22.71;54.43;99687.69;4407406;32;33937;-75
2022/08/02 01:04:40;;;;;;;3.67;2.28;;;;;;;22.65;54.42;99681.50;4407614;32;33545;-72
2022/08/02 01:07:07;;;;;;;2.70;2.20;;;;;;;22.78;54.13;99681.63;4407142;32;34927;-72
2022/08/02 01:09:41;;;;;;;2.72;2.30;;;;;;;22.44;55.14;99683.38;4407483;32;33975;-72
2022/08/02 01:12:09;;;;;;;5.07;2.45;;;;;;;22.61;54.69;99683.31;4407210;32;34651;-75
2022/08/02 01:14:38;;;;;;;2.70;2.30;;;;;;;22.74;54.09;99678.69;4401124;32;34339;-75
2022/08/02 01:17:08;;;;;;;3.60;2.17;;;;;;;22.62;54.28;99681.37;4394236;32;34724;-72
2022/08/02 01:19:54;;;;;;;2.90;2.45;;;;;;;22.67;54.22;99683.94;4392840;32;34185;-73
2022/08/02 01:22:36;;;;;;;3.00;2.30;;;;;;;22.49;54.68;99672.97;4394194;32;34156;-72
2022/08/02 01:25:41;;;;;;;2.33;2.10;;;;;;;21.96;56.25;99687.19;4368186;32;33754;-73
2022/08/02 01:28:27;;;;;;;2.67;2.33;;;;;;;22.04;56.20;99687.16;4378893;32;34023;-72
2022/08/02 01:31:03;;;;;;;2.70;2.20;;;;;;;22.12;56.05;99682.78;4378900;32;34876;-73
2022/08/02 01:34:08;;;;;;;2.40;2.00;;;;;;;22.34;55.41;99690.06;4365294;32;33950;-74
2022/08/02 01:36:39;;;;;;;2.92;2.30;;;;;;;22.35;55.42;99691.69;4366449;32;33595;-75
2022/08/02 01:39:10;;;;;;;2.80;2.28;;;;;;;22.23;55.68;99694.34;4388649;32;33496;-75
2022/08/02 01:41:53;;;;;;;2.60;2.10;;;;;;;22.09;56.10;99694.47;4393086;32;34176;-72
2022/08/02 01:44:28;;;;;;;2.58;2.12;;;;;;;22.32;55.38;99695.13;4393625;32;33739;-74
2022/08/02 01:47:01;;;;;;;3.60;2.50;;;;;;;22.32;55.30;99701.44;4380408;32;33546;-72
2022/08/02 01:49:30;;;;;;;2.40;2.20;;;;;;;22.20;55.74;99697.72;4380464;32;34131;-73
2022/08/02 01:54:53;;;;;;;3.05;2.37;;;;;;;21.59;57.71;99701.31;4382500;32;34871;-72
2022/08/02 01:57:22;;;;;;;3.22;2.60;;;;;;;21.82;57.20;99713.03;4392673;32;33360;-74
2022/08/02 01:59:50;;;;;;;3.00;2.33;;;;;;;21.87;56.92;99706.53;4386212;32;33579;-73
2022/08/02 02:02:18;;;;;;;3.10;2.50;;;;;;;21.74;57.39;99716.59;4406235;32;34192;-70
2022/08/02 02:04:48;;;;;;;3.42;2.65;;;;;;;21.45;58.14;99714.47;4395042;32;35004;-73
2022/08/02 02:07:17;;;;;;;3.12;2.47;;;;;;;21.31;58.60;99720.88;4395539;32;33685;-73
2022/08/02 02:09:45;;;;;;;2.92;2.60;;;;;;;21.34;58.57;99722.22;4395225;32;34666;-72
2022/08/02 02:12:18;;;;;;;3.75;2.70;;;;;;;;;;4396004;32;34340;-74
2022/08/02 02:14:47;;;;;;;3.10;2.25;;;;;;;21.28;58.83;99718.78;4398364;32;34380;-71
2022/08/02 02:17:20;;;;;;;3.12;2.42;;;;;;;21.49;58.35;99720.97;4380658;32;33858;-71
2022/08/02 02:20:15;;;;;;;3.85;2.60;;;;;;;21.06;59.53;99730.72;4393951;32;33969;-74
2022/08/02 02:22:42;;;;;;;;;;;;;;;20.32;62.70;99733.22;4392901;32;34306;-73
2022/08/02 02:25:11;;;;;;;3.08;2.45;;;;;;;21.16;59.99;99732.38;4393092;32;34503;-73
2022/08/02 02:27:47;;;;;;;3.83;2.67;;;;;;;21.45;58.99;99725.50;4393644;32;33490;-74
2022/08/02 02:30:16;;;;;;;9.35;3.10;;;;;;;21.61;58.15;99718.37;4379757;32;33937;-75
2022/08/02 02:32:44;;;;;;;3.12;2.50;;;;;;;21.10;59.79;99723.44;4393669;32;34208;-73
2022/08/02 02:35:12;;;;;;;3.37;2.80;;;;;;;21.08;59.92;99722.16;4384447;32;34098;-73
2022/08/02 02:37:43;;;;;;;3.50;2.85;;;;;;;20.94;60.37;99721.44;4377134;32;34638;-72
2022/08/02 02:40:11;;;;;;;4.70;3.17;;;;;;;21.19;59.61;99728.19;4378829;32;34114;-73
2022/08/02 02:42:40;;;;;;;3.50;2.78;;;;;;;21.05;59.92;99737.38;4377261;32;35134;-72
2022/08/02 02:45:17;;;;;;;2.97;2.47;;;;;;;21.28;59.13;99729.81;4365632;32;34387;-75
2022/08/02 02:47:48;;;;;;;3.92;2.80;;;;;;;20.88;60.31;99737.28;4377117;32;34498;-74
2022/08/02 02:50:17;;;;;;;3.92;2.78;;;;;;;21.31;59.37;99736.63;4388649;32;34769;-75
2022/08/02 02:52:44;;;;;;;3.58;2.83;;;;;;;21.44;59.06;99734.91;4408661;32;34901;-74
2022/08/02 02:55:13;;;;;;;3.45;2.87;;;;;;;21.29;59.39;99730.62;4408533;32;34924;-73
2022/08/02 02:57:41;;;;;;;3.83;2.95;;;;;;;21.50;58.73;99728.91;4394813;32;34577;-72
2022/08/02 03:00:11;;;;;;;4.32;3.25;;;;;;;21.26;59.43;99721.03;4382555;32;33973;-73
2022/08/02 03:02:39;;;;;;;3.60;3.10;;;;;;;20.72;61.08;99730.59;4393426;32;34214;-74
2022/08/02 03:05:08;;;;;;;3.55;2.87;;;;;;;20.87;60.66;99721.91;4392011;32;33810;-73
2022/08/02 03:07:36;;;;;;;3.30;2.78;;;;;;;20.67;61.26;99715.81;4379773;32;33156;-72
2022/08/02 03:10:05;;;;;;;3.37;2.85;;;;;;;21.09;60.20;99716.28;4393454;32;34067;-74
2022/08/02 03:12:34;;;;;;;3.92;3.30;;;;;;;;;;4393048;32;35097;-72
2022/08/02 03:15:06;;;;;;;4.32;3.08;;;;;;;21.13;59.82;99699.91;4404143;32;34453;-75
2022/08/02 03:17:41;;;;;;;3.17;2.67;;;;;;;21.22;59.61;99699.94;4394741;32;33602;-73
2022/08/02 03:20:16;;;;;;;4.57;3.20;;;;;;;21.31;59.27;99704.31;4408459;32;34050;-74
2022/08/02 03:22:44;;;;;;;3.78;3.00;;;;;;;21.29;59.35;99697.50;4408036;32;34054;-74
2022/08/02 03:25:13;;;;;;;4.87;3.50;;;;;;;20.85;60.63;99710.38;4394469;32;34818;-76
2022/08/02 03:27:41;;;;;;;4.07;3.20;;;;;;;20.67;61.30;99713.06;4405610;32;34523;-72
2022/08/02 03:30:11;;;;;;;3.70;2.87;;;;;;;20.93;60.86;99717.88;4379567;32;33912;-74
2022/08/02 03:32:40;;;;;;;3.55;2.90;;;;;;;20.76;61.36;99715.84;4392979;32;35211;-73
2022/08/02 03:35:09;;;;;;;4.15;3.00;;;;;;;21.05;60.37;99723.56;4379679;32;34660;-72
2022/08/02 03:37:37;;;;;;;4.45;3.22;;;;;;;20.82;61.25;99722.84;4392991;32;34542;-75
2022/08/02 03:40:07;;;;;;;4.07;3.08;;;;;;;20.73;61.58;99721.97;4383667;27;34152;-73
2022/08/02 03:42:34;;;;;;;3.78;3.05;;;;;;;20.78;61.73;99723.81;4379523;32;34195;-73
2022/08/02 03:45:03;;;;;;;4.20;3.10;;;;;;;21.16;60.29;99731.56;4379495;32;33956;-73
2022/08/02 03:47:36;;;;;;;4.32;3.00;;;;;;;21.02;60.59;99728.94;4379663;32;32736;-72
2022/08/02 03:50:11;;;;;;;4.32;3.00;;;;;;;20.92;60.63;99730.00;4379677;32;33913;-81
2022/08/02 03:52:41;;;;;;;4.05;3.05;;;;;;;20.84;60.97;99734.37;4379891;32;34261;-72
2022/08/02 03:55:10;;;;;;;3.62;2.92;;;;;;;20.66;61.88;99729.91;4392914;32;34211;-71
2022/08/02 03:57:39;;;;;;;3.70;2.97;;;;;;;21.13;60.47;99738.53;4393109;32;33733;-72
2022/08/02 04:00:09;;;;;;;3.92;2.90;;;;;;;21.19;60.89;99741.97;4379624;32;34695;-75
2022/08/02 04:02:38;;;;;;;3.50;2.58;;;;;;;21.41;60.33;99741.06;4379833;32;35111;-71
2022/08/02 04:05:06;;;;;;;4.60;3.00;;;;;;;21.70;59.42;99751.50;4392920;32;34272;-73
2022/08/02 04:07:34;;;;;;;4.45;3.25;;;;;;;21.92;59.21;99745.00;4393031;32;34689;-72
2022/08/02 04:10:21;;;;;;;3.58;2.80;;;;;;;22.22;58.37;99750.69;4381127;32;34024;-71
2022/08/02 04:12:49;;;;;;;3.37;3.00;;;;;;;22.57;56.96;99742.37;4391424;32;33996;-71
2022/08/02 04:15:16;;;;;;;4.32;2.92;;;;;;;22.77;56.15;99749.16;4378427;32;34372;-75
2022/08/02 04:17:55;;;;;;;3.80;2.83;;;;;;;22.95;55.88;99753.47;4378233;32;34277;-72
2022/08/02 04:20:27;;;;;;;3.85;2.78;;;;;;;23.09;55.70;99753.31;4391085;32;34812;-71
2022/08/02 04:23:02;;;;;;;3.55;2.58;;;;;;;23.43;54.38;99754.25;4391420;32;34221;-69
2022/08/02 04:25:30;;;;;;;;;;;;;;;23.50;54.29;99760.09;4376521;32;34937;-73
2022/08/02 04:28:08;;;;;;;3.40;2.40;;;;;;;23.60;54.46;99761.62;4388768;32;33325;-72
2022/08/02 04:30:48;;;;;;;3.58;2.67;;;;;;;23.95;52.13;99763.06;4378046;32;33515;-72
2022/08/02 04:33:16;;;;;;;3.97;2.80;;;;;;;24.04;52.33;99762.16;4373692;32;35262;-70
2022/08/02 04:35:44;;;;;;;3.17;2.50;;;;;;;24.10;53.16;99763.56;4368232;32;34280;-69
2022/08/02 04:38:13;;;;;;;3.12;2.40;;;;;;;24.30;52.68;99759.97;4375084;32;33633;-73
2022/08/02 04:40:54;;;;;;;4.75;2.60;;;;;;;24.54;51.52;99766.78;4368025;32;33871;-74
2022/08/02 04:43:22;;;;;;;2.95;2.60;;;;;;;24.67;50.53;99764.84;4361817;32;33670;-73
2022/08/02 04:45:52;;;;;;;3.17;2.70;;;;;;;24.92;49.69;99760.16;4362777;32;34215;-73
2022/08/02 04:48:20;;;;;;;3.22;2.60;;;;;;;25.25;48.63;99762.88;4360374;32;34342;-76
2022/08/02 04:50:48;;;;;;;2.95;2.50;;;;;;;25.34;48.51;99757.19;4362668;32;34918;-70
2022/08/02 04:53:15;;;;;;;3.33;2.33;;;;;;;25.45;48.31;99769.44;4375411;32;34976;-78
2022/08/02 04:55:43;;;;;;;2.33;2.05;;;;;;;25.74;46.79;99770.34;4376108;32;34899;-77
2022/08/02 04:58:10;;;;;;;5.05;2.58;;;;;;;25.90;46.49;99770.47;4375402;32;33866;-68
2022/08/02 05:00:58;;;;;;;3.35;2.50;;;;;;;25.98;47.25;99778.66;4375925;32;33822;-78
2022/08/02 05:03:26;;;;;;;3.00;2.28;;;;;;;26.16;47.37;99773.63;4376414;32;35067;-72
2022/08/02 05:05:53;;;;;;;3.62;2.30;;;;;;;26.20;47.77;99787.63;4362560;32;35123;-73
2022/08/02 05:08:21;;;;;;;4.32;2.80;;;;;;;26.21;47.14;99786.44;4376120;32;33578;-72
2022/08/02 05:10:48;;;;;;;3.22;2.40;;;;;;;26.21;46.61;99794.00;4387033;27;34033;-71
2022/08/02 05:13:16;;;;;;;3.70;2.12;;;;;;;26.25;45.81;99792.94;4361135;32;34841;-71
2022/08/02 05:15:43;;;;;;;2.50;2.00;;;;;;;26.54;45.36;99802.91;4359791;32;34859;-73
2022/08/02 05:18:11;;;;;;;3.17;2.35;;;;;;;26.10;47.24;99800.03;4359960;32;33542;-70
2022/08/02 05:20:39;;;;;;;2.92;2.28;;;;;;;26.01;46.95;99802.16;4359667;32;34705;-68
2022/08/02 05:23:07;;;;;;;2.37;2.00;;;;;;;25.72;48.43;99803.22;4361148;32;34131;-70
2022/08/02 05:25:34;;;;;;;4.15;2.50;;;;;;;26.13;46.72;99810.47;4361274;32;34169;-72
2022/08/02 05:28:02;;;;;;;2.85;2.17;;;;;;;26.38;44.42;99802.84;4361009;32;33489;-70
2022/08/02 05:30:32;;;;;;;2.83;2.33;;;;;;;25.98;48.07;99819.53;4360607;32;33855;-70
2022/08/02 05:33:00;;;;;;;3.20;2.37;;;;;;;26.51;47.41;99825.84;4360903;32;34159;-69
2022/08/02 05:35:27;;;;;;;4.03;2.42;;;;;;;25.90;46.08;99818.53;4360863;32;34079;-70
2022/08/02 05:37:55;;;;;;;2.65;2.20;;;;;;;26.54;46.24;99821.56;4360802;32;33780;-71
2022/08/02 05:40:22;;;;;;;3.25;2.53;;;;;;;26.87;45.58;99821.31;4359554;32;33897;-70
2022/08/02 05:42:53;;;;;;;3.17;2.50;;;;;;;26.91;44.45;99822.22;4360743;32;33909;-70
2022/08/02 05:45:21;;;;;;;3.22;2.25;;;;;;;26.98;45.53;99827.16;4360340;32;33826;-70
2022/08/02 05:47:49;;;;;;;4.28;2.20;;;;;;;27.53;43.31;99828.16;4360849;32;33476;-70
2022/08/02 05:50:16;;;;;;;2.70;2.20;;;;;;;27.75;43.05;99834.25;4384830;32;34837;-71
2022/08/02 05:52:45;;;;;;;3.33;2.50;;;;;;;27.89;42.77;99837.41;4390758;32;34159;-70
2022/08/02 05:55:18;;;;;;;3.72;2.50;;;;;;;28.07;42.66;99823.84;4390652;32;34093;-69
2022/08/02 05:58:06;;;;;;;2.40;2.20;;;;;;;28.14;42.93;99832.38;4380981;32;33349;-73
2022/08/02 06:00:36;;;;;;;2.85;2.28;;;;;;;28.64;40.82;99829.84;4363676;32;33086;-71
2022/08/02 06:03:15;;;;;;;3.12;2.30;;;;;;;28.70;40.74;99831.13;4372449;32;34154;-71
2022/08/02 06:05:50;;;;;;;3.67;2.92;;;;;;;28.75;41.09;99828.06;4391786;32;34327;-71
2022/08/02 06:08:20;;;;;;;3.10;2.25;;;;;;;28.91;40.52;99832.72;4380109;32;34305;-72
2022/08/02 06:10:50;;;;;;;2.92;2.15;;;;;;;29.03;41.07;99832.56;4379795;32;34064;-71
2022/08/02 06:13:19;;;;;;;2.90;2.37;;;;;;;28.30;42.44;99839.88;4393560;32;34187;-72
2022/08/02 06:15:50;;;;;;;3.45;2.47;;;;;;;29.01;40.25;99832.13;4393546;32;35015;-72
2022/08/02 06:18:21;;;;;;;2.92;1.90;;;;;;;29.92;38.29;99830.44;4367822;32;32737;-72
2022/08/02 06:20:58;;;;;;;3.55;2.30;;;;;;;29.91;38.73;99836.41;4393583;32;33788;-71
2022/08/02 06:23:46;;;;;;;1.90;1.60;;;;;;;29.39;39.95;99836.78;4393563;32;33980;-72
2022/08/02 06:26:26;;;;;;;2.10;1.90;;;;;;;30.13;37.76;99835.53;4377887;32;34388;-73
2022/08/02 06:28:56;;;;;;;2.50;2.28;;;;;;;30.35;37.32;99836.66;4373632;32;33762;-73
2022/08/02 06:31:24;;;;;;;2.20;2.00;;;;;;;29.76;37.47;99833.41;4364571;32;34686;-72
2022/08/02 06:33:51;;;;;;;2.40;1.90;;;;;;;29.92;38.02;99840.84;4365139;32;35242;-72
2022/08/02 06:36:41;;;;;;;2.42;1.98;;;;;;;30.14;36.51;99839.13;4378529;32;34172;-72
2022/08/02 06:39:22;;;;;;;3.45;2.00;;;;;;;29.70;37.89;99836.88;4365314;32;33661;-72
2022/08/02 06:41:51;;;;;;;2.03;1.83;;;;;;;29.09;38.97;99836.66;4355172;32;34648;-72
2022/08/02 06:44:20;;;;;;;2.45;1.80;;;;;;;28.90;40.22;99843.09;4362598;32;34745;-71
2022/08/02 06:47:08;;;;;;;3.55;1.80;;;;;;;29.31;38.73;99845.41;4361992;32;34193;-74
2022/08/02 06:49:40;;;;;;;2.55;1.90;;;;;;;29.95;35.96;99842.88;4352590;32;33759;-73
2022/08/02 06:52:25;;;;;;;2.15;1.80;;;;;;;29.95;37.10;99843.66;4362373;32;33156;-71
2022/08/02 06:55:01;;;;;;;3.25;1.90;;;;;;;29.63;38.26;99849.56;4378330;32;34864;-74
2022/08/02 06:57:29;;;;;;;2.67;2.20;;;;;;;31.14;34.60;99850.72;4378263;32;34128;-71
2022/08/02 06:59:57;;;;;;;3.30;2.03;;;;;;;31.77;33.88;99846.88;4362195;32;33740;-78
2022/08/02 07:02:24;;;;;;;1.70;1.60;;;;;;;32.80;32.92;99845.78;4367877;32;34608;-72
2022/08/02 07:04:53;;;;;;;2.17;1.58;;;;;;;34.19;28.41;99844.22;4384907;32;33931;-70
2022/08/02 07:07:20;;;;;;;2.33;2.08;;;;;;;35.04;27.22;99844.97;4362179;32;33963;-74
2022/08/02 07:09:50;;;;;;;2.20;1.60;;;;;;;35.65;27.17;99841.72;4358139;32;33539;-71
2022/08/02 07:12:32;;;;;;;3.35;1.70;;;;;;;35.84;27.03;99843.16;4360044;32;33934;-73
2022/08/02 07:15:01;;;;;;;2.00;1.62;;;;;;;35.26;26.67;99842.03;4361935;32;34239;-73
2022/08/02 07:17:30;;;;;;;2.10;1.75;;;;;;;35.31;27.26;99833.13;4361551;32;34349;-72
2022/08/02 07:19:58;;;;;;;1.90;1.55;;;;;;;33.78;28.84;99832.59;4361714;32;34590;-72
2022/08/02 07:22:27;;;;;;;2.58;1.75;;;;;;;33.31;29.10;99824.19;4347020;32;34020;-70
2022/08/02 07:24:56;;;;;;;1.62;1.50;;;;;;;33.06;29.81;99824.97;4361856;32;34823;-70
2022/08/02 07:27:24;;;;;;;2.53;1.70;;;;;;;33.03;30.32;99830.56;4362162;32;34136;-72
2022/08/02 07:29:51;;;;;;;1.75;1.65;;;;;;;32.85;30.85;99827.72;4362019;32;33522;-71
2022/08/02 07:32:22;;;;;;;2.50;1.83;;;;;;;32.04;31.46;99836.22;4345689;32;33950;-72
2022/08/02 07:34:49;;;;;;;2.55;1.80;;;;;;;31.85;31.81;99828.06;4361395;32;35088;-68
2022/08/02 07:37:21;;;;;;;3.75;2.10;;;;;;;31.48;34.50;99817.81;4358029;32;34135;-73
2022/08/02 07:40:12;;;;;;;2.08;1.73;;;;;;;30.82;33.29;99809.16;4361917;32;33878;-79
2022/08/02 07:42:50;;;;;;;2.72;1.77;;;;;;;31.47;33.02;99817.00;4355698;32;34812;-76
2022/08/02 07:45:19;;;;;;;2.03;1.75;;;;;;;30.16;35.49;99814.38;4361905;32;33650;-74
2022/08/02 07:47:47;;;;;;;2.78;2.20;;;;;;;30.42;34.97;99814.31;4361532;32;33955;-81
2022/08/02 07:50:17;;;;;;;2.78;1.65;;;;;;;30.12;35.58;99822.72;4361297;32;34425;-67
2022/08/02 07:52:45;;;;;;;2.45;1.80;;;;;;;30.61;34.44;99818.16;4354740;32;34639;-84
2022/08/02 07:55:14;;;;;;;1.98;1.77;;;;;;;29.78;35.72;99811.44;4362041;32;33963;-67
2022/08/02 07:57:42;;;;;;;1.92;1.70;;;;;;;29.03;38.33;99815.81;4361757;32;34116;-80
2022/08/02 08:00:15;;;;;;;2.90;2.17;;;;;;;29.33;37.14;99813.16;4345971;33;33870;-78
2022/08/02 08:02:44;;;;;;;1.92;1.73;;;;;;;28.79;38.40;99814.97;4360310;32;34702;-77
2022/08/02 08:05:12;;;;;;;2.00;1.75;;;;;;;29.19;37.23;99821.28;4361463;32;34877;-83
2022/08/02 08:07:39;;;;;;;2.83;1.87;;;;;;;29.34;36.52;99819.53;4360108;32;33804;-67
2022/08/02 08:10:08;;;;;;;2.70;2.20;;;;;;;29.15;36.82;99824.00;4361703;32;34405;-78
2022/08/02 08:12:35;;;;;;;2.87;2.03;;;;;;;29.11;36.66;99813.94;4368700;32;34561;-71
2022/08/02 08:15:03;;;;;;;2.33;1.83;;;;;;;28.97;37.49;99820.06;4376182;32;34868;-67
2022/08/02 08:17:31;;;;;;;2.97;2.45;;;;;;;28.66;37.70;99824.69;4376582;32;34894;-79
2022/08/02 08:20:00;;;;;;;2.47;1.92;;;;;;;29.32;39.08;99824.69;4359688;32;33282;-67
2022/08/02 08:22:27;;;;;;;2.20;1.80;;;;;;;28.77;38.03;99827.66;4359545;32;34096;-67
2022/08/02 08:24:55;;;;;;;2.20;1.90;;;;;;;28.18;38.17;99826.88;4376259;32;34208;-79
2022/08/02 08:27:23;;;;;;;2.03;1.75;;;;;;;28.96;37.49;99830.44;4376799;32;34309;-67
2022/08/02 08:29:50;;;;;;;1.95;1.75;;;;;;;28.99;37.12;99831.69;4374588;32;34173;-74
2022/08/02 08:32:18;;;;;;;2.78;2.17;;;;;;;28.89;35.88;99830.31;4376444;32;34754;-75
2022/08/02 08:34:46;;;;;;;2.33;1.73;;;;;;;28.71;37.77;99829.16;4376366;32;34905;-76
2022/08/02 08:37:14;;;;;;;3.00;2.22;;;;;;;28.60;37.29;99840.13;4376632;32;35010;-74
2022/08/02 08:39:45;;;;;;;2.72;2.03;;;;;;;28.52;37.20;99835.56;4376248;32;33218;-70
2022/08/02 08:42:26;;;;;;;2.67;2.03;;;;;;;29.03;36.74;99832.56;4376534;32;34935;-74
2022/08/02 08:44:55;;;;;;;1.98;1.73;;;;;;;28.79;36.43;99837.31;4360251;32;33844;-74
2022/08/02 08:47:35;;;;;;;1.87;1.60;;;;;;;28.81;36.11;99836.91;4374406;32;34089;-66
2022/08/02 08:50:05;;;;;;;2.85;2.00;;;;;;;29.48;36.47;99825.34;4375904;32;33838;-67
2022/08/02 08:52:42;;;;;;;6.70;2.20;;;;;;;29.39;36.45;99835.97;4375930;32;33649;-74
2022/08/02 08:55:10;;;;;;;3.35;2.12;;;;;;;29.44;35.66;99835.69;4375906;32;34321;-77
2022/08/02 08:57:42;;;;;;;2.92;2.00;;;;;;;29.00;37.43;99842.47;4363279;32;34831;-75
2022/08/02 09:00:15;;;;;;;1.87;1.70;;;;;;;29.35;37.62;99840.69;4377559;32;33788;-66
2022/08/02 09:02:43;;;;;;;2.17;1.83;;;;;;;29.44;35.66;99844.88;4377398;32;34778;-66
2022/08/02 09:05:13;;;;;;;2.72;2.17;;;;;;;29.89;34.47;99847.16;4377597;32;35079;-72
2022/08/02 09:07:41;;;;;;;2.95;1.90;;;;;;;29.17;35.67;99844.00;4377502;32;34219;-71
2022/08/02 09:10:37;;;;;;;2.00;1.75;;;;;;;29.27;35.61;99841.78;4361048;32;34276;-69
2022/08/02 09:13:06;;;;;;;1.67;1.50;;;;;;;29.49;35.07;99843.75;4373316;32;34084;-75
2022/08/02 09:15:55;;;;;;;1.87;1.30;;;;;;;28.89;36.99;99843.47;4377244;32;34234;-74
2022/08/02 09:18:38;;;;;;;1.37;1.27;;;;;;;28.89;34.69;99846.25;4377431;32;34364;-74
2022/08/02 09:21:07;;;;;;;1.20;1.10;;;;;;;29.18;34.24;99833.63;4377298;32;34365;-76
2022/08/02 09:23:46;;;;;;;1.23;1.08;;;;;;;29.28;33.05;99840.59;4377242;32;34866;-79
2022/08/02 09:26:15;;;;;;;1.10;1.00;;;;;;;29.74;33.24;99844.19;4377064;32;34962;-75
2022/08/02 09:28:45;;;;;;;1.37;1.20;;;;;;;29.58;31.60;99841.47;4377044;32;34287;-72
2022/08/02 09:31:15;;;;;;;1.30;1.10;;;;;;;29.38;33.16;99845.56;4376229;32;34107;-73
2022/08/02 09:33:44;;;;;;;1.58;1.17;;;;;;;29.91;32.95;99842.00;4377365;32;34765;-76
2022/08/02 09:36:15;;;;;;;1.45;1.20;;;;;;;30.03;32.34;99837.00;4362892;32;35097;-78
2022/08/02 09:38:57;;;;;;;1.25;1.10;;;;;;;29.80;31.94;99847.44;4376909;32;34248;-77
2022/08/02 09:41:27;;;;;;;1.40;1.30;;;;;;;29.65;32.50;99835.19;4379022;32;33482;-78
2022/08/02 09:43:55;;;;;;;1.45;1.35;;;;;;;29.61;32.05;99840.75;4379175;32;33966;-76
2022/08/02 09:46:36;;;;;;;1.52;1.27;;;;;;;29.41;33.90;99836.41;4364063;32;34174;-79
2022/08/02 09:49:15;;;;;;;1.48;1.10;;;;;;;29.84;33.11;99837.91;4378708;32;34232;-78
2022/08/02 09:51:50;;;;;;;1.60;1.30;;;;;;;29.41;34.52;99836.41;4379433;32;33468;-77
2022/08/02 09:54:22;;;;;;;1.62;1.42;;;;;;;29.65;33.19;99836.03;4379017;32;34040;-77
2022/08/02 09:56:52;;;;;;;1.75;1.37;;;;;;;29.76;32.42;99827.81;4378879;32;34054;-75
2022/08/02 09:59:21;;;;;;;1.70;1.40;;;;;;;29.71;33.80;99821.75;4378994;32;34115;-76
2022/08/02 10:01:49;;;;;;;1.40;1.30;;;;;;;29.93;32.75;99825.66;4378537;32;34426;-75
2022/08/02 10:04:30;;;;;;;1.77;1.48;;;;;;;30.16;32.80;99817.97;4378859;32;33248;-77
2022/08/02 10:07:02;;;;;;;2.30;1.58;;;;;;;30.42;33.12;99824.72;4378477;32;34082;-74
2022/08/02 10:09:32;;;;;;;1.73;1.62;;;;;;;30.73;32.19;99831.88;4363921;32;34294;-74
2022/08/02 10:12:00;;;;;;;1.50;1.40;;;;;;;30.69;32.26;99817.00;4378678;32;33650;-75
2022/08/02 10:14:30;;;;;;;1.85;1.50;;;;;;;31.10;32.32;99819.06;4378734;32;34127;-67
2022/08/02 10:16:58;;;;;;;2.30;1.60;;;;;;;31.14;32.88;99815.09;4362411;32;34066;-65
2022/08/02 10:19:25;;;;;;;1.65;1.40;;;;;;;30.45;33.96;99810.78;4363210;32;34840;-76
2022/08/02 10:22:14;;;;;;;1.95;1.60;;;;;;;31.00;33.00;99817.78;4378611;32;33503;-75
2022/08/02 10:24:45;;;;;;;1.60;1.50;;;;;;;31.16;32.35;99821.09;4377350;32;34729;-75
2022/08/02 10:27:18;;;;;;;2.30;1.55;;;;;;;30.43;33.44;99815.94;4373779;32;33809;-75
2022/08/02 10:29:49;;;;;;;2.22;1.70;;;;;;;30.88;33.25;99812.44;4371429;32;34268;-73
2022/08/02 10:32:32;;;;;;;3.42;1.77;;;;;;;30.44;33.88;99803.56;4377366;32;33767;-76
2022/08/02 10:35:03;;;;;;;1.90;1.42;;;;;;;30.17;34.09;99807.56;4361203;32;34617;-74
2022/08/02 10:37:57;;;;;;;1.62;1.40;;;;;;;30.64;34.04;99806.97;4364692;32;34318;-75
2022/08/02 10:40:27;;;;;;;2.00;1.62;;;;;;;30.49;34.23;99807.19;4363942;32;34820;-76
2022/08/02 10:42:59;;;;;;;2.45;1.80;;;;;;;31.18;32.66;99803.91;4377073;32;33711;-75
2022/08/02 10:45:27;;;;;;;1.67;1.40;;;;;;;31.02;31.83;99810.59;4374996;32;33766;-73
2022/08/02 10:48:04;;;;;;;1.85;1.60;;;;;;;30.56;33.08;99796.06;4377163;32;33604;-65
2022/08/02 10:50:44;;;;;;;2.15;1.52;;;;;;;30.49;32.51;99796.81;4362724;32;34210;-74
2022/08/02 10:53:32;;;;;;;1.42;1.30;;;;;;;30.22;33.81;99794.06;4377363;32;34553;-68
2022/08/02 10:56:01;;;;;;;2.35;1.55;;;;;;;29.90;32.72;99795.66;4356514;32;34715;-66
2022/08/02 10:58:31;;;;;;;1.58;1.42;;;;;;;29.99;33.54;99796.97;4375117;32;34078;-79
2022/08/02 11:01:04;;;;;;;1.73;1.60;;;;;;;30.07;33.59;99802.69;4361163;32;34274;-70
2022/08/02 11:03:33;;;;;;;2.20;1.90;;;;;;;29.78;34.37;99802.25;4376102;32;34498;-77
2022/08/02 11:06:11;;;;;;;1.90;1.70;;;;;;;30.36;34.47;99807.44;4360954;32;35087;-76
2022/08/02 11:09:27;;;;;;;1.83;1.60;;;;;;;29.99;33.06;99796.97;4364491;32;33825;-78
2022/08/02 11:12:04;;;;;;;2.00;1.80;;;;;;;29.84;34.05;99797.97;4372053;32;34694;-66
2022/08/02 11:14:34;;;;;;;2.05;1.60;;;;;;;29.70;32.91;99795.78;4377040;32;33414;-71
2022/08/02 11:17:04;;;;;;;3.47;1.65;;;;;;;29.92;34.11;99791.28;4364094;32;34390;-67
2022/08/02 11:19:33;;;;;;;2.33;1.50;;;;;;;30.06;33.47;99790.66;4391852;32;34224;-67
2022/08/02 11:22:03;;;;;;;2.20;1.80;;;;;;;30.33;32.70;99788.63;4392067;32;34310;-73
2022/08/02 11:24:32;;;;;;;2.28;1.70;;;;;;;30.11;33.20;99792.31;4378492;32;34406;-75
2022/08/02 11:27:05;;;;;;;1.77;1.62;;;;;;;30.42;32.95;99786.34;4391306;32;33895;-74
2022/08/02 11:29:41;;;;;;;2.62;1.60;;;;;;;30.15;34.29;99790.38;4392029;32;33857;-75
2022/08/02 11:32:21;;;;;;;2.17;1.70;;;;;;;30.38;33.92;99790.28;4377691;32;34464;-72
2022/08/02 11:34:57;;;;;;;2.00;1.60;;;;;;;30.30;33.93;99789.38;4392093;32;33584;-75
2022/08/02 11:37:35;;;;;;;1.77;1.45;;;;;;;30.08;33.87;99793.06;4378343;32;33956;-66
2022/08/02 11:40:04;;;;;;;1.70;1.45;;;;;;;30.24;34.38;99783.31;4378348;32;34905;-73
2022/08/02 11:42:43;;;;;;;1.52;1.42;;;;;;;30.74;32.90;99782.28;4391425;32;33546;-76
2022/08/02 11:45:13;;;;;;;1.55;1.25;;;;;;;30.50;34.62;99786.41;4391988;32;33771;-78
2022/08/02 11:47:50;;;;;;;2.05;1.60;;;;;;;30.18;32.58;99784.81;4378582;32;33933;-70
2022/08/02 11:50:22;;;;;;;2.12;1.67;;;;;;;29.62;33.49;99780.03;4391721;32;34251;-74
2022/08/02 11:52:56;;;;;;;1.92;1.65;;;;;;;30.31;32.71;99784.59;4379154;32;35015;-74
2022/08/02 11:55:29;;;;;;;1.85;1.58;;;;;;;30.79;32.87;99781.91;4391770;32;34200;-80
2022/08/02 11:58:00;;;;;;;1.67;1.40;;;;;;;30.11;32.23;99775.53;4377503;32;33873;-72